Time;durP1;ratioP1;P1;durP2;ratioP2;P2;SDS_P1;SDS_P2;PMS_P1;PMS_P2;Temp;Humidity;BMP_temperature;BMP_pressure;BME280_temperature;BME280_humidity;BME280_pressure;Samples;Min_cycle;Max_cycle;Signal;HPM_P1;HPM_P2
2022/11/02 00:00:02;;;;;;;14.30;7.90;;;;;;;12.01;81.95;97052.81;105388;1301;22489;-79
2022/11/02 00:02:53;;;;;;;12.40;8.00;;;;;;;11.99;81.80;97054.15;105403;1303;22503;-80
2022/11/02 00:05:24;;;;;;;10.40;7.80;;;;;;;11.98;81.78;97056.57;105387;1285;22465;-80
2022/11/02 00:07:58;;;;;;;15.10;7.70;;;;;;;11.97;81.83;97055.34;105352;1295;24927;-79
2022/11/02 00:10:29;;;;;;;12.60;7.80;;;;;;;11.99;81.98;97056.98;105435;1301;23590;-80
2022/11/02 00:13:00;;;;;;;13.60;7.60;;;;;;;12.02;82.01;97057.32;105439;1289;22466;-80
2022/11/02 00:15:36;;;;;;;10.90;7.30;;;;;;;12.07;82.29;97055.48;105458;1289;24277;-80
2022/11/02 00:18:11;;;;;;;12.60;7.50;;;;;;;12.10;82.49;97051.63;105363;1286;22550;-80
2022/11/02 00:20:43;;;;;;;13.40;7.10;;;;;;;12.17;82.94;97049.04;105274;1297;24168;-80
2022/11/02 00:23:16;;;;;;;11.60;6.70;;;;;;;12.30;83.46;97054.56;105282;1287;25387;-80
2022/11/02 00:25:50;;;;;;;11.60;7.40;;;;;;;12.39;83.19;97054.82;105274;1296;22463;-80
2022/11/02 00:28:21;;;;;;;10.60;7.30;;;;;;;12.33;82.26;97056.88;105279;1297;24297;-80
2022/11/02 00:30:52;;;;;;;12.80;7.20;;;;;;;12.25;82.22;97060.14;105364;1296;22462;-80
2022/11/02 00:33:23;;;;;;;12.30;7.50;;;;;;;12.18;82.32;97061.35;105411;1301;25476;-80
2022/11/02 00:35:54;;;;;;;10.30;7.20;;;;;;;12.16;82.87;97058.19;105374;1301;22652;-80
2022/11/02 00:38:26;;;;;;;8.80;6.10;;;;;;;12.34;84.22;97056.94;105313;1281;22469;-79
2022/11/02 00:40:56;;;;;;;10.90;6.10;;;;;;;12.58;84.54;97056.52;105271;1281;24313;-80
2022/11/02 00:43:28;;;;;;;8.90;6.00;;;;;;;12.80;84.32;97049.98;105270;1280;22519;-80
2022/11/02 00:45:59;;;;;;;9.90;6.40;;;;;;;12.94;84.19;97049.31;105405;1294;22580;-80
2022/11/02 00:48:30;;;;;;;14.30;6.70;;;;;;;13.03;84.10;97042.82;105362;1279;23249;-80
2022/11/02 00:51:03;;;;;;;11.60;6.70;;;;;;;13.08;83.99;97042.55;105372;1302;22505;-80
2022/11/02 00:53:35;;;;;;;12.00;7.40;;;;;;;13.14;83.93;97042.55;105367;1302;22472;-80
2022/11/02 00:56:07;;;;;;;10.80;6.30;;;;;;;13.16;83.77;97038.90;105374;1302;22621;-80
2022/11/02 00:58:38;;;;;;;12.10;6.40;;;;;;;13.18;83.72;97041.71;105380;1301;22460;-80
2022/11/02 01:01:09;;;;;;;11.70;6.50;;;;;;;13.19;83.57;97041.73;105473;1287;22450;-80
2022/11/02 01:03:40;;;;;;;9.10;5.90;;;;;;;13.19;83.73;97043.89;105447;1288;22530;-80
2022/11/02 01:06:14;;;;;;;9.20;6.20;;;;;;;13.19;83.65;97042.79;105389;1285;22518;-80
2022/11/02 01:08:46;;;;;;;12.80;6.50;;;;;;;13.17;83.68;97042.83;105358;1301;22613;-80
2022/11/02 01:11:19;;;;;;;12.90;7.80;;;;;;;13.15;83.21;97042.23;105473;1293;22462;-80
2022/11/02 01:13:53;;;;;;;15.20;7.90;;;;;;;13.03;82.74;97039.83;105448;1278;24263;-80
2022/11/02 01:16:25;;;;;;;9.20;6.80;;;;;;;12.87;82.31;97040.50;105485;1281;24251;-80
2022/11/02 01:18:56;;;;;;;10.00;6.80;;;;;;;12.77;82.35;97038.08;105405;1276;25213;-80
2022/11/02 01:21:27;;;;;;;12.90;7.80;;;;;;;12.70;82.46;97036.41;105436;1294;22477;-80
2022/11/02 01:23:58;;;;;;;11.80;8.00;;;;;;;12.65;82.41;97039.54;105450;1285;22481;-80
2022/11/02 01:26:29;;;;;;;11.30;7.90;;;;;;;12.55;82.16;97035.59;105479;1296;22562;-80
2022/11/02 01:29:00;;;;;;;12.80;7.50;;;;;;;12.45;82.30;97036.05;105408;1301;22447;-80
2022/11/02 01:31:31;;;;;;;11.50;7.50;;;;;;;12.40;82.46;97035.83;105421;1285;25465;-80
2022/11/02 01:34:02;;;;;;;12.30;7.80;;;;;;;12.35;82.74;97032.14;105468;1301;22478;-80
2022/11/02 01:36:33;;;;;;;11.80;7.80;;;;;;;12.29;82.92;97034.53;105427;1294;22465;-80
2022/11/02 01:39:05;;;;;;;11.00;7.70;;;;;;;12.22;83.01;97033.14;105376;1296;22498;-80
2022/11/02 01:41:36;;;;;;;13.00;7.50;;;;;;;12.16;83.15;97031.45;105371;1301;22456;-80
2022/11/02 01:44:27;;;;;;;11.40;7.30;;;;;;;12.13;83.41;97029.98;105367;1294;22472;-80
2022/11/02 01:47:04;;;;;;;12.30;7.30;;;;;;;12.16;83.75;97033.26;105377;1303;22471;-80
2022/11/02 01:49:40;;;;;;;12.20;6.80;;;;;;;12.15;83.74;97032.05;105391;1280;22525;-81
2022/11/02 01:52:15;;;;;;;11.50;7.70;;;;;;;12.15;84.08;97035.66;105465;1287;22490;-80
2022/11/02 01:54:52;;;;;;;11.40;7.60;;;;;;;12.16;84.13;97033.04;105477;1287;22502;-80
2022/11/02 01:57:27;;;;;;;10.70;8.30;;;;;;;12.16;84.02;97032.51;105450;1288;22457;-80
2022/11/02 02:00:06;;;;;;;15.00;7.90;;;;;;;12.16;83.97;97034.05;105481;1285;35044;-80
2022/11/02 02:02:43;;;;;;;13.50;8.10;;;;;;;12.15;84.05;97039.06;105453;1300;22503;-80
2022/11/02 02:05:16;;;;;;;12.80;7.30;;;;;;;12.15;84.08;97045.76;105470;1300;22466;-80
2022/11/02 02:07:49;;;;;;;10.50;7.20;;;;;;;12.16;84.28;97049.77;105448;1286;27503;-80
2022/11/02 02:10:21;;;;;;;10.30;6.70;;;;;;;12.19;84.35;97047.58;105480;1298;22455;-80
2022/11/02 02:12:52;;;;;;;9.90;7.20;;;;;;;12.19;84.37;97051.14;105446;1293;23259;-80
2022/11/02 02:15:27;;;;;;;10.20;7.00;;;;;;;12.20;84.54;97046.56;105483;1286;22575;-80
2022/11/02 02:18:06;;;;;;;11.10;8.20;;;;;;;12.22;84.70;97048.84;105431;1301;22486;-80
2022/11/02 02:20:59;;;;;;;9.70;6.30;;;;;;;12.26;84.94;97047.70;105446;1295;22556;-80
2022/11/02 02:23:46;;;;;;;8.50;6.10;;;;;;;12.39;85.89;97046.62;105451;1303;22595;-79
2022/11/02 02:26:42;;;;;;;9.70;5.80;;;;;;;12.62;86.24;97049.67;105436;1281;22479;-80
2022/11/02 02:29:21;;;;;;;9.50;5.90;;;;;;;12.77;86.13;97052.66;105408;1301;25370;-80
2022/11/02 02:31:58;;;;;;;9.90;5.90;;;;;;;12.88;85.96;97053.42;105491;1292;24325;-80
2022/11/02 02:34:35;;;;;;;8.30;5.80;;;;;;;12.99;85.85;97056.02;105466;1301;22576;-80
2022/11/02 02:37:12;;;;;;;8.20;5.70;;;;;;;13.06;85.51;97050.88;105484;1301;22472;-79
2022/11/02 02:39:49;;;;;;;11.70;6.30;;;;;;;13.11;85.30;97056.91;105424;1301;22756;-79
2022/11/02 02:42:23;;;;;;;9.90;6.40;;;;;;;13.13;85.14;97057.48;105487;1285;22459;-79
2022/11/02 02:45:05;;;;;;;7.80;5.50;;;;;;;13.14;85.02;97062.63;105489;1279;22447;-79
2022/11/02 02:47:40;;;;;;;9.90;6.60;;;;;;;13.14;84.77;97063.84;105193;1303;22863;-79
2022/11/02 02:50:15;;;;;;;8.20;5.70;;;;;;;13.14;84.72;97067.48;105183;1297;22463;-79
2022/11/02 02:52:49;;;;;;;10.60;5.70;;;;;;;13.14;84.58;97069.23;105167;1305;25487;-79
2022/11/02 02:55:26;;;;;;;8.90;5.60;;;;;;;13.14;84.62;97071.20;105172;1296;22488;-79
2022/11/02 02:58:00;;;;;;;9.80;6.10;;;;;;;13.12;84.44;97075.69;105086;1279;30594;-79
2022/11/02 03:00:35;;;;;;;10.20;6.00;;;;;;;13.14;84.36;97077.38;105125;1303;22512;-79
2022/11/02 03:03:15;;;;;;;12.70;6.40;;;;;;;13.16;84.36;97072.92;105185;1302;22473;-79
2022/11/02 03:06:04;;;;;;;8.90;5.80;;;;;;;13.19;84.09;97074.52;105136;1290;24347;-79
2022/11/02 03:08:39;;;;;;;8.70;6.40;;;;;;;13.18;84.02;97072.65;105128;1295;22476;-79
2022/11/02 03:11:15;;;;;;;10.10;6.30;;;;;;;13.15;83.88;97079.87;105192;1303;22466;-79
2022/11/02 03:14:00;;;;;;;9.90;6.10;;;;;;;13.13;83.89;97084.09;105162;1297;22529;-79
2022/11/02 03:16:51;;;;;;;8.10;5.30;;;;;;;13.10;83.91;97080.72;105182;1294;22464;-79
2022/11/02 03:19:34;;;;;;;9.80;5.80;;;;;;;13.08;83.89;97085.46;105186;1302;26654;-79
2022/11/02 03:22:12;;;;;;;11.90;6.60;;;;;;;13.04;83.83;97083.85;105255;1302;22991;-79
2022/11/02 03:24:54;;;;;;;9.80;5.80;;;;;;;13.02;83.95;97089.56;105281;1302;22484;-79
2022/11/02 03:27:32;;;;;;;10.40;5.90;;;;;;;13.01;84.00;97084.37;105275;1281;25460;-79
2022/11/02 03:30:08;;;;;;;8.90;5.60;;;;;;;13.02;83.97;97083.08;105162;1304;22522;-79
2022/11/02 03:32:48;;;;;;;8.50;5.60;;;;;;;13.03;83.96;97084.02;105208;1304;22444;-79
2022/11/02 03:35:21;;;;;;;;;;;;;;;13.04;84.00;97083.05;105198;1284;22500;-79
2022/11/02 03:37:57;;;;;;;9.60;5.40;;;;;;;13.04;83.91;97087.63;105140;1290;22480;-79
2022/11/02 03:40:34;;;;;;;8.00;5.40;;;;;;;13.02;83.90;97089.04;105301;1288;22482;-79
2022/11/02 03:43:07;;;;;;;8.00;5.70;;;;;;;13.03;83.96;97090.36;105297;1295;23171;-79
2022/11/02 03:45:43;;;;;;;9.80;5.70;;;;;;;13.00;83.87;97089.97;105333;1288;22454;-79
2022/11/02 03:48:18;;;;;;;7.70;5.50;;;;;;;12.96;83.89;97085.97;105410;1279;22501;-79
2022/11/02 03:50:52;;;;;;;9.40;5.60;;;;;;;12.91;83.76;97091.00;105439;1294;22464;-79
2022/11/02 03:53:34;;;;;;;10.50;5.10;;;;;;;12.85;83.87;97085.33;105446;1294;22470;-79
2022/11/02 03:56:09;;;;;;;9.70;5.60;;;;;;;12.84;84.04;97091.99;105463;1300;22479;-79
2022/11/02 03:58:41;;;;;;;8.60;5.20;;;;;;;12.81;84.07;97095.64;105358;1281;22484;-79
2022/11/02 04:01:13;;;;;;;10.10;5.70;;;;;;;12.75;84.12;97097.34;105381;1301;22452;-79
2022/11/02 04:03:47;;;;;;;6.20;4.80;;;;;;;12.68;84.30;97096.23;105378;1295;22463;-79
2022/11/02 04:06:18;;;;;;;10.50;5.60;;;;;;;12.64;84.39;97095.61;105336;1302;22469;-79
2022/11/02 04:08:51;;;;;;;9.70;5.50;;;;;;;12.59;84.62;97090.57;105382;1285;22497;-79
2022/11/02 04:19:48;;;;;;;9.70;5.80;;;;;;;12.40;85.09;97097.46;105138;1301;24247;-80
2022/11/02 04:25:20;;;;;;;9.40;6.50;;;;;;;12.30;85.60;97099.55;105493;1301;24295;-79
2022/11/02 04:27:55;;;;;;;8.70;5.90;;;;;;;12.28;86.00;97097.44;105443;1278;23222;-79
2022/11/02 04:30:26;;;;;;;8.60;6.20;;;;;;;12.26;86.04;97099.27;105444;1287;23826;-79
2022/11/02 04:35:46;;;;;;;9.20;5.90;;;;;;;12.17;86.29;97098.27;105458;1291;22474;-79
2022/11/02 04:43:55;;;;;;;9.50;6.10;;;;;;;12.18;86.91;97100.54;105348;1277;22937;-79
2022/11/02 04:46:30;;;;;;;11.60;6.20;;;;;;;12.14;86.81;97098.77;105350;1294;22564;-79
2022/11/02 04:49:01;;;;;;;10.90;6.50;;;;;;;12.09;86.87;97105.11;105360;1303;22493;-79
2022/11/02 04:51:33;;;;;;;10.20;6.20;;;;;;;12.02;86.73;97106.38;105441;1302;22525;-79
2022/11/02 04:54:04;;;;;;;10.00;6.40;;;;;;;11.91;86.94;97101.86;105492;1292;22470;-79
2022/11/02 04:56:35;;;;;;;11.30;6.30;;;;;;;11.84;87.04;97107.70;105453;1288;22460;-80
2022/11/02 04:59:09;;;;;;;8.70;5.20;;;;;;;11.80;87.21;97110.14;105338;1301;24717;-79
2022/11/02 05:01:40;;;;;;;8.30;6.30;;;;;;;11.75;87.59;97113.34;105383;1302;22474;-79
2022/11/02 05:04:12;;;;;;;10.70;6.10;;;;;;;11.79;88.20;97115.02;105369;1301;22550;-80
2022/11/02 05:06:43;;;;;;;10.20;5.80;;;;;;;11.82;88.18;97111.70;105372;1303;22465;-79
2022/11/02 05:09:15;;;;;;;9.90;6.20;;;;;;;11.82;87.93;97110.09;105370;1287;22487;-79
2022/11/02 05:11:46;;;;;;;9.80;5.90;;;;;;;11.79;88.20;97113.81;105427;1281;25255;-79
2022/11/02 05:14:17;;;;;;;8.70;6.10;;;;;;;11.74;88.14;97111.02;105483;1284;23208;-79
2022/11/02 05:16:48;;;;;;;10.00;6.00;;;;;;;11.69;88.27;97111.95;105441;1301;22463;-79
2022/11/02 05:19:19;;;;;;;10.20;6.90;;;;;;;11.64;88.35;97115.03;105390;1303;22473;-79
2022/11/02 05:21:50;;;;;;;9.70;6.40;;;;;;;11.57;88.48;97121.34;105466;1296;22564;-79
2022/11/02 05:24:21;;;;;;;10.80;6.80;;;;;;;11.51;88.67;97121.34;105463;1290;22477;-79
2022/11/02 05:26:52;;;;;;;10.00;6.90;;;;;;;11.51;88.81;97122.23;105458;1301;22507;-80
2022/11/02 05:29:24;;;;;;;10.10;6.70;;;;;;;11.50;88.88;97122.63;105428;1298;22501;-79
2022/11/02 05:31:56;;;;;;;10.60;6.90;;;;;;;11.48;88.99;97129.75;105425;1303;22989;-79
2022/11/02 05:34:28;;;;;;;9.70;6.50;;;;;;;11.52;89.28;97133.81;105445;1294;24289;-79
2022/11/02 05:36:59;;;;;;;10.70;7.40;;;;;;;11.54;89.19;97137.43;105438;1288;22974;-79
2022/11/02 05:39:30;;;;;;;11.50;7.20;;;;;;;11.54;89.30;97137.59;105438;1294;23862;-79
2022/11/02 05:42:01;;;;;;;10.60;7.00;;;;;;;11.56;89.40;97138.44;105422;1303;24298;-79
2022/11/02 05:44:32;;;;;;;15.80;8.30;;;;;;;11.58;89.50;97138.70;105505;1288;22524;-79
2022/11/02 05:47:04;;;;;;;10.10;8.10;;;;;;;11.59;89.42;97138.00;105448;1278;22481;-79
2022/11/02 05:49:35;;;;;;;11.20;7.50;;;;;;;11.56;89.29;97137.12;105335;1288;25371;-79
2022/11/02 05:52:07;;;;;;;11.70;7.00;;;;;;;11.51;89.40;97141.48;105445;1288;25253;-79
2022/11/02 05:54:38;;;;;;;14.40;8.40;;;;;;;11.50;89.63;97139.14;105412;1288;22471;-79
2022/11/02 05:57:09;;;;;;;10.90;7.40;;;;;;;11.51;89.81;97140.89;105375;1288;22469;-79
2022/11/02 05:59:40;;;;;;;11.50;7.20;;;;;;;11.51;90.05;97144.50;105311;1302;34448;-79
2022/11/02 06:02:11;;;;;;;12.80;8.40;;;;;;;11.53;90.15;97146.77;105400;1293;22460;-79
2022/11/02 06:04:42;;;;;;;13.60;8.20;;;;;;;11.58;90.28;97150.06;105406;1301;25207;-79
2022/11/02 06:07:13;;;;;;;12.10;8.00;;;;;;;11.65;90.28;97155.44;105401;1295;22553;-79
2022/11/02 06:09:45;;;;;;;13.80;7.40;;;;;;;11.72;90.18;97155.43;105422;1302;22460;-79
2022/11/02 06:12:16;;;;;;;12.40;7.90;;;;;;;11.78;90.07;97148.71;105432;1295;22492;-79
2022/11/02 06:14:48;;;;;;;11.70;7.10;;;;;;;11.88;89.97;97154.12;105476;1285;22466;-79
2022/11/02 06:17:19;;;;;;;9.00;5.80;;;;;;;12.14;89.98;97152.50;105446;1303;24253;-79
2022/11/02 06:19:50;;;;;;;9.40;7.10;;;;;;;12.54;89.39;97153.10;105415;1301;22458;-79
2022/11/02 06:22:22;;;;;;;7.00;5.40;;;;;;;12.64;88.34;97155.99;105442;1286;24315;-79
2022/11/02 06:24:53;;;;;;;6.70;4.70;;;;;;;12.62;87.68;97156.59;105457;1302;22464;-79
2022/11/02 06:27:24;;;;;;;7.10;4.40;;;;;;;12.82;87.34;97157.61;105476;1287;22469;-79
2022/11/02 06:29:56;;;;;;;8.90;5.10;;;;;;;13.12;86.99;97157.74;105432;1298;35976;-79
2022/11/02 06:32:28;;;;;;;8.10;5.40;;;;;;;13.52;86.69;97156.92;105495;1277;24244;-80
2022/11/02 06:34:59;;;;;;;6.90;5.00;;;;;;;13.84;85.62;97156.30;105481;1301;24293;-80
2022/11/02 06:37:34;;;;;;;9.80;7.00;;;;;;;14.00;84.64;97159.66;105461;1292;22640;-79
2022/11/02 06:40:07;;;;;;;8.60;6.10;;;;;;;14.24;84.30;97162.92;105362;1290;22469;-80
2022/11/02 06:42:39;;;;;;;10.10;6.30;;;;;;;14.65;83.92;97162.63;105402;1281;22526;-80
2022/11/02 06:45:11;;;;;;;8.00;5.30;;;;;;;15.26;83.36;97165.61;105359;1294;22527;-79
2022/11/02 06:47:43;;;;;;;10.80;6.10;;;;;;;15.81;82.27;97164.36;105292;1301;24673;-80
2022/11/02 06:50:16;;;;;;;11.00;6.70;;;;;;;16.11;81.07;97167.77;105317;1277;212093;-80
2022/11/02 06:52:48;;;;;;;9.50;6.10;;;;;;;15.75;79.18;97166.48;105464;1303;22644;-79
2022/11/02 06:55:20;;;;;;;9.90;6.20;;;;;;;15.14;78.76;97167.48;105482;1281;22714;-80
2022/11/02 06:57:52;;;;;;;9.30;6.20;;;;;;;14.60;79.18;97170.06;105413;1291;22465;-80
2022/11/02 07:00:24;;;;;;;7.90;5.60;;;;;;;14.20;79.86;97167.77;105372;1295;22458;-80
2022/11/02 07:03:03;;;;;;;10.30;5.60;;;;;;;13.91;80.56;97168.20;105367;1303;22481;-80
2022/11/02 07:05:35;;;;;;;7.40;5.50;;;;;;;13.80;81.47;97169.14;105353;1287;22454;-80
2022/11/02 07:08:07;;;;;;;8.70;5.50;;;;;;;13.77;81.84;97171.30;105355;1301;23823;-80
2022/11/02 07:10:38;;;;;;;8.30;5.70;;;;;;;13.65;82.06;97167.55;105378;1302;24325;-80
2022/11/02 07:13:09;;;;;;;7.20;5.30;;;;;;;13.54;82.42;97163.15;105406;1285;22635;-80
2022/11/02 07:15:41;;;;;;;9.50;6.30;;;;;;;13.49;82.63;97162.30;105384;1301;22459;-80
2022/11/02 07:18:13;;;;;;;7.20;4.70;;;;;;;13.40;82.88;97156.48;105363;1288;22468;-80
2022/11/02 07:20:44;;;;;;;9.40;5.80;;;;;;;13.42;83.24;97157.16;105473;1280;22476;-80
2022/11/02 07:23:15;;;;;;;10.60;5.90;;;;;;;13.43;83.31;97152.13;105423;1302;22540;-80
2022/11/02 07:25:46;;;;;;;7.50;5.60;;;;;;;13.48;83.33;97154.09;105509;1285;24117;-80
2022/11/02 07:28:18;;;;;;;9.30;5.60;;;;;;;13.52;83.23;97151.65;105452;1301;24400;-80
2022/11/02 07:30:49;;;;;;;8.20;5.30;;;;;;;13.97;83.28;97149.30;105454;1288;25331;-80
2022/11/02 07:33:20;;;;;;;9.00;5.80;;;;;;;14.31;82.57;97148.70;105526;1301;22453;-80
2022/11/02 07:35:51;;;;;;;9.60;6.30;;;;;;;14.67;82.04;97149.89;105498;1289;22480;-80
2022/11/02 07:38:22;;;;;;;7.20;5.40;;;;;;;14.70;81.11;97153.95;105370;1293;29714;-80
2022/11/02 07:40:53;;;;;;;8.60;5.80;;;;;;;14.62;80.62;97152.91;105375;1289;25269;-80
2022/11/02 07:43:32;;;;;;;7.30;4.40;;;;;;;14.47;80.33;97150.94;105357;1287;22531;-80
2022/11/02 07:46:05;;;;;;;8.60;5.30;;;;;;;14.45;80.22;97148.39;105360;1293;22459;-80
2022/11/02 07:48:36;;;;;;;9.70;5.90;;;;;;;14.69;80.45;97149.23;105314;1301;23493;-78
2022/11/02 07:51:10;;;;;;;10.40;5.70;;;;;;;14.97;80.37;97149.98;105385;1279;26413;-80
2022/11/02 07:53:41;;;;;;;7.10;5.00;;;;;;;15.40;80.38;97147.85;105336;1287;22499;-80
2022/11/02 07:56:12;;;;;;;8.20;5.10;;;;;;;15.73;79.65;97148.95;105366;1303;22480;-80
2022/11/02 07:58:44;;;;;;;8.00;5.40;;;;;;;15.71;78.55;97149.09;105317;1292;24117;-80
2022/11/02 08:01:15;;;;;;;7.40;4.90;;;;;;;16.10;78.50;97146.01;105359;1302;22612;-80
2022/11/02 08:03:46;;;;;;;7.50;4.70;;;;;;;16.43;77.02;97144.54;105379;1291;25229;-80
2022/11/02 08:06:18;;;;;;;7.80;4.70;;;;;;;16.19;76.66;97144.89;105401;1281;22459;-80
2022/11/02 08:08:49;;;;;;;8.80;4.60;;;;;;;16.27;76.81;97144.55;105375;1303;24698;-80
2022/11/02 08:11:40;;;;;;;6.40;4.70;;;;;;;16.56;76.19;97143.32;105470;1300;22608;-80
2022/11/02 08:14:11;;;;;;;6.40;4.80;;;;;;;16.96;76.23;97143.48;105484;1288;22562;-80
2022/11/02 08:16:43;;;;;;;8.80;5.70;;;;;;;16.93;74.81;97147.76;105450;1301;22485;-80
2022/11/02 08:19:14;;;;;;;8.70;4.80;;;;;;;16.65;74.23;97148.91;105394;1284;26489;-80
2022/11/02 08:21:46;;;;;;;7.50;4.60;;;;;;;16.29;74.25;97146.93;105441;1279;22461;-80
2022/11/02 08:24:17;;;;;;;8.70;5.10;;;;;;;16.07;74.67;97150.89;105485;1303;25758;-80
2022/11/02 08:26:48;;;;;;;7.60;4.60;;;;;;;15.97;74.91;97151.89;105503;1301;22458;-80
2022/11/02 08:29:20;;;;;;;8.10;4.70;;;;;;;15.90;75.21;97147.74;105465;1301;22475;-80
2022/11/02 08:31:51;;;;;;;7.00;5.00;;;;;;;15.95;75.57;97149.70;105506;1296;25297;-80
2022/11/02 08:34:22;;;;;;;9.30;4.80;;;;;;;15.95;75.22;97153.80;105473;1295;22453;-80
2022/11/02 08:36:54;;;;;;;8.40;5.10;;;;;;;15.79;75.13;97152.67;105504;1292;22456;-80
2022/11/02 08:39:25;;;;;;;6.40;4.60;;;;;;;15.69;75.77;97151.92;105328;1296;22589;-80
2022/11/02 08:41:56;;;;;;;6.50;4.70;;;;;;;15.87;76.26;97150.55;105356;1284;22470;-80
2022/11/02 08:44:27;;;;;;;8.90;5.00;;;;;;;15.98;76.00;97149.95;105399;1295;24367;-80
2022/11/02 08:46:58;;;;;;;6.80;4.60;;;;;;;15.94;75.53;97146.92;105328;1303;22516;-80
2022/11/02 08:49:29;;;;;;;11.40;7.90;;;;;;;15.73;74.47;97146.17;105357;1298;23651;-80
2022/11/02 08:52:00;;;;;;;16.30;9.80;;;;;;;15.14;74.56;97144.94;105444;1288;26402;-80
2022/11/02 08:54:32;;;;;;;12.40;9.80;;;;;;;14.76;75.47;97146.98;105479;1285;25319;-80
2022/11/02 08:57:03;;;;;;;14.20;9.70;;;;;;;14.51;76.32;97148.30;105483;1288;22501;-80
2022/11/02 08:59:34;;;;;;;12.90;9.80;;;;;;;14.31;77.45;97146.61;105426;1303;22464;-80
2022/11/02 09:02:05;;;;;;;12.60;9.00;;;;;;;14.14;77.85;97142.37;105440;1295;22474;-80
2022/11/02 09:04:36;;;;;;;12.00;9.10;;;;;;;13.99;78.22;97134.84;105458;1302;22509;-80
2022/11/02 09:07:08;;;;;;;12.30;9.00;;;;;;;13.94;78.74;97135.37;105465;1303;22491;-80
2022/11/02 09:09:39;;;;;;;12.50;8.80;;;;;;;14.07;79.37;97133.23;105386;1303;22456;-80
2022/11/02 09:12:11;;;;;;;12.50;8.30;;;;;;;14.32;80.01;97132.95;105451;1302;22513;-80
2022/11/02 09:14:42;;;;;;;10.50;7.10;;;;;;;14.63;79.90;97138.96;105490;1279;25478;-80
2022/11/02 09:17:14;;;;;;;8.50;6.80;;;;;;;14.88;79.12;97135.02;105488;1303;22459;-80
2022/11/02 09:19:45;;;;;;;9.50;6.90;;;;;;;15.02;78.75;97130.42;105401;1281;47203;-80
2022/11/02 09:22:17;;;;;;;7.80;5.60;;;;;;;15.15;78.18;97129.17;105476;1293;22460;-80
2022/11/02 09:24:48;;;;;;;10.50;6.00;;;;;;;15.32;78.03;97124.85;105448;1300;22480;-81
2022/11/02 09:27:22;;;;;;;9.50;6.00;;;;;;;15.61;78.15;97124.05;105485;1294;25365;-81
2022/11/02 09:29:54;;;;;;;9.20;5.60;;;;;;;15.91;77.80;97119.83;105463;1290;36764;-81
2022/11/02 09:32:32;;;;;;;8.30;5.20;;;;;;;16.15;76.96;97122.61;105464;1293;25338;-81
2022/11/02 09:35:06;;;;;;;9.40;5.10;;;;;;;16.34;75.59;97117.23;105462;1291;23138;-81
2022/11/02 09:37:38;;;;;;;8.80;4.50;;;;;;;16.22;73.70;97118.77;105438;1290;22485;-81
2022/11/02 09:40:13;;;;;;;6.20;4.10;;;;;;;16.15;73.70;97117.22;105438;1290;22479;-81
2022/11/02 09:42:53;;;;;;;8.20;4.10;;;;;;;16.27;73.65;97120.38;105487;1295;25277;-81
2022/11/02 09:45:26;;;;;;;7.10;4.70;;;;;;;16.43;72.95;97111.38;105456;1279;22502;-81
2022/11/02 09:48:02;;;;;;;5.40;3.50;;;;;;;16.49;71.96;97108.55;105376;1294;25554;-81
2022/11/02 09:50:44;;;;;;;6.90;3.40;;;;;;;16.51;69.60;97108.30;105522;1292;22476;-81
2022/11/02 09:53:22;;;;;;;6.80;3.50;;;;;;;16.52;67.69;97105.13;105433;1289;22563;-81
2022/11/02 09:55:59;;;;;;;6.10;3.70;;;;;;;16.44;66.40;97100.93;105463;1285;22464;-81
2022/11/02 09:58:37;;;;;;;3.20;2.80;;;;;;;16.48;66.06;97103.09;105396;1292;22477;-81
2022/11/02 10:01:19;;;;;;;4.20;2.90;;;;;;;16.60;66.26;97107.09;105456;1291;22454;-82
2022/11/02 10:04:07;;;;;;;8.10;3.50;;;;;;;16.72;64.69;97094.13;105445;1298;25312;-81
2022/11/02 10:06:43;;;;;;;6.40;2.80;;;;;;;16.88;65.00;97109.48;105436;1284;22484;-82
2022/11/02 10:09:22;;;;;;;7.40;3.20;;;;;;;16.81;61.38;97101.29;105388;1295;23465;-81
2022/11/02 10:12:02;;;;;;;3.90;2.00;;;;;;;16.67;59.68;97094.19;105457;1290;22549;-80
2022/11/02 10:14:38;;;;;;;2.70;1.70;;;;;;;16.61;58.33;97103.90;105457;1298;22481;-81
2022/11/02 10:17:16;;;;;;;3.20;1.70;;;;;;;16.42;57.30;97108.58;105454;1279;25962;-82
2022/11/02 10:19:53;;;;;;;4.90;2.60;;;;;;;16.33;58.22;97107.73;105496;1288;22506;-82
2022/11/02 10:22:28;;;;;;;6.30;2.90;;;;;;;16.18;58.62;97108.86;105454;1277;22483;-82
2022/11/02 10:25:01;;;;;;;5.80;3.40;;;;;;;15.94;59.84;97104.29;105445;1280;25339;-81
2022/11/02 10:27:37;;;;;;;7.90;3.30;;;;;;;15.72;60.81;97104.91;105427;1294;22702;-81
2022/11/02 10:30:14;;;;;;;4.60;3.40;;;;;;;15.65;61.71;97110.09;105475;1294;22458;-81
2022/11/02 10:32:48;;;;;;;6.40;3.00;;;;;;;15.77;62.15;97111.45;105465;1296;22465;-81
2022/11/02 10:35:25;;;;;;;8.50;3.40;;;;;;;15.84;61.89;97111.89;105467;1301;25206;-81
2022/11/02 10:38:11;;;;;;;7.10;3.30;;;;;;;15.88;61.65;97108.81;105386;1291;22471;-81
2022/11/02 10:41:10;;;;;;;5.20;3.20;;;;;;;15.95;60.58;97099.84;105431;1302;25406;-81
2022/11/02 10:43:58;;;;;;;6.50;3.10;;;;;;;16.09;59.93;97098.67;105461;1292;22636;-81
2022/11/02 10:46:46;;;;;;;4.70;2.90;;;;;;;16.20;59.02;97090.38;105423;1291;25498;-81
2022/11/02 10:49:32;;;;;;;6.70;2.80;;;;;;;16.34;59.05;97089.72;105430;1292;25246;-81
2022/11/02 10:52:04;;;;;;;5.90;3.20;;;;;;;16.45;57.71;97090.84;105481;1295;25372;-82
2022/11/02 10:54:35;;;;;;;6.40;2.70;;;;;;;16.63;58.63;97087.48;105448;1301;22472;-81
2022/11/02 10:57:12;;;;;;;5.20;3.20;;;;;;;16.96;59.00;97087.95;105462;1300;22468;-81
2022/11/02 10:59:43;;;;;;;5.20;2.80;;;;;;;17.20;58.48;97085.30;105434;1303;22921;-81
2022/11/02 11:02:18;;;;;;;8.70;3.00;;;;;;;17.30;57.71;97084.38;105464;1293;22458;-81
2022/11/02 11:04:49;;;;;;;4.30;2.80;;;;;;;17.39;58.46;97081.20;105444;1295;22452;-81
2022/11/02 11:07:27;;;;;;;5.50;3.00;;;;;;;17.51;57.59;97085.63;105474;1302;22489;-81
2022/11/02 11:09:59;;;;;;;4.80;2.80;;;;;;;17.53;57.69;97088.95;105423;1303;33487;-81
2022/11/02 11:12:34;;;;;;;5.50;3.00;;;;;;;17.64;57.02;97081.25;105467;1295;22507;-81
2022/11/02 11:15:20;;;;;;;5.40;2.80;;;;;;;17.66;57.20;97080.83;105455;1302;22489;-80
2022/11/02 11:17:53;;;;;;;4.70;2.90;;;;;;;17.71;55.83;97080.90;105389;1285;22467;-81
2022/11/02 11:20:34;;;;;;;4.90;2.70;;;;;;;17.66;56.06;97080.49;105344;1301;22545;-81
2022/11/02 11:23:23;;;;;;;4.20;2.90;;;;;;;17.45;55.86;97087.72;105456;1299;24555;-81
2022/11/02 11:26:00;;;;;;;5.00;2.90;;;;;;;17.42;56.63;97087.64;105394;1284;25370;-81
2022/11/02 11:28:40;;;;;;;6.90;3.00;;;;;;;17.39;56.30;97083.77;105363;1300;25582;-81
2022/11/02 11:31:16;;;;;;;4.30;2.60;;;;;;;17.27;56.74;97083.33;105497;1303;22471;-81
2022/11/02 11:33:51;;;;;;;4.70;2.70;;;;;;;17.40;55.86;97075.11;105508;1291;22529;-80
2022/11/02 11:36:26;;;;;;;4.80;3.00;;;;;;;17.59;56.33;97076.23;105460;1300;22461;-80
2022/11/02 11:39:02;;;;;;;5.00;2.60;;;;;;;17.83;56.01;97076.59;105461;1284;24334;-80
2022/11/02 11:41:39;;;;;;;5.50;3.20;;;;;;;18.08;56.31;97078.77;105488;1291;22481;-80
2022/11/02 11:44:15;;;;;;;4.50;2.70;;;;;;;18.17;54.79;97076.96;105494;1303;24257;-81
2022/11/02 11:46:48;;;;;;;5.60;2.90;;;;;;;18.01;54.22;97072.13;105504;1299;22583;-81
2022/11/02 11:49:25;;;;;;;26.50;14.50;;;;;;;17.95;54.29;97072.48;105332;1303;32443;-81
2022/11/02 11:51:58;;;;;;;3.70;2.20;;;;;;;17.96;53.65;97067.14;105358;1303;22480;-81
2022/11/02 11:54:31;;;;;;;4.40;2.50;;;;;;;17.79;52.47;97062.31;105417;1294;22471;-81
2022/11/02 11:57:22;;;;;;;9.80;4.50;;;;;;;17.61;53.02;97064.38;105383;1304;24440;-81
2022/11/02 11:59:54;;;;;;;4.10;2.20;;;;;;;17.67;52.61;97064.10;105418;1303;31180;-80
2022/11/02 12:02:28;;;;;;;12.50;7.90;;;;;;;17.65;51.70;97068.04;105431;1303;24253;-81
2022/11/02 12:05:13;;;;;;;6.10;3.30;;;;;;;17.56;51.28;97063.62;105488;1302;22508;-82
2022/11/02 12:08:23;;;;;;;3.50;1.80;;;;;;;17.49;51.13;97069.01;105405;1284;25571;-81
2022/11/02 12:11:12;;;;;;;;;;;;;;;17.37;51.31;97070.32;105337;1303;22906;-81
2022/11/02 12:14:00;;;;;;;4.90;2.90;;;;;;;17.03;51.09;97067.38;105425;1298;22620;-80